createdAt,value
2023-08-24T00:00:44.080Z,22.70
2023-08-24T00:03:30.969Z,22.70
2023-08-24T00:06:18.008Z,22.60
2023-08-24T00:09:06.652Z,22.60
2023-08-24T00:11:54.185Z,22.60
2023-08-24T00:14:41.014Z,22.60
2023-08-24T00:17:27.886Z,22.50
2023-08-24T00:20:14.878Z,22.50
2023-08-24T00:23:02.223Z,22.40
2023-08-24T00:25:49.081Z,22.40
2023-08-24T00:28:36.075Z,22.30
2023-08-24T00:31:23.215Z,22.30
2023-08-24T00:34:10.394Z,22.30
2023-08-24T00:36:57.238Z,22.30
2023-08-24T00:39:44.141Z,22.30
2023-08-24T00:42:30.979Z,22.30
2023-08-24T00:45:19.516Z,22.30
2023-08-24T00:48:06.886Z,22.30
2023-08-24T00:50:54.663Z,22.20
2023-08-24T00:53:41.915Z,22.20
2023-08-24T00:56:31.241Z,22.10
2023-08-24T00:59:18.286Z,22.10
2023-08-24T01:02:05.149Z,22.10
2023-08-24T01:04:52.316Z,22.10
2023-08-24T01:07:40.822Z,22.10
2023-08-24T01:10:39.958Z,22.00
2023-08-24T01:13:33.652Z,22.00
2023-08-24T01:16:28.773Z,22.00
2023-08-24T01:19:35.351Z,21.90
2023-08-24T01:22:42.266Z,21.90
2023-08-24T01:25:53.751Z,21.80
2023-08-24T01:28:42.294Z,21.80
2023-08-24T01:31:29.219Z,21.90
2023-08-24T01:34:16.087Z,21.90
2023-08-24T01:37:03.150Z,21.90
2023-08-24T01:40:11.150Z,21.90
2023-08-24T01:43:04.242Z,21.90
2023-08-24T01:45:53.007Z,21.90
2023-08-24T01:48:40.252Z,21.90
2023-08-24T01:51:27.777Z,21.90
2023-08-24T01:54:15.054Z,21.90
2023-08-24T01:57:02.003Z,21.80
2023-08-24T01:59:48.955Z,21.80
2023-08-24T02:02:37.069Z,21.70
2023-08-24T02:05:28.503Z,21.70
2023-08-24T02:08:15.327Z,21.70
2023-08-24T02:11:02.386Z,21.70
2023-08-24T02:13:49.268Z,21.60
2023-08-24T02:16:37.491Z,21.70
2023-08-24T02:19:24.370Z,21.70
2023-08-24T02:22:11.241Z,21.70
2023-08-24T02:24:58.109Z,21.70
2023-08-24T02:27:44.963Z,21.70
2023-08-24T02:30:31.808Z,21.70
2023-08-24T02:33:18.690Z,21.60
2023-08-24T02:36:05.837Z,21.60
2023-08-24T02:38:52.753Z,21.60
2023-08-24T02:41:39.680Z,21.60
2023-08-24T02:44:27.911Z,21.60
2023-08-24T02:47:16.073Z,21.60
2023-08-24T02:50:02.933Z,21.60
2023-08-24T02:52:49.787Z,21.60
2023-08-24T02:55:36.736Z,21.60
2023-08-24T02:58:23.988Z,21.60
2023-08-24T03:01:11.165Z,21.60
2023-08-24T03:03:58.127Z,21.60
2023-08-24T03:06:45.850Z,21.60
2023-08-24T03:09:32.746Z,21.60
2023-08-24T03:12:19.573Z,21.60
2023-08-24T03:15:07.795Z,21.60
2023-08-24T03:17:54.752Z,21.60
2023-08-24T03:20:42.125Z,21.60
2023-08-24T03:23:29.228Z,21.60
2023-08-24T03:26:17.644Z,21.60
2023-08-24T03:29:04.625Z,21.70
2023-08-24T03:31:51.472Z,21.70
2023-08-24T03:34:38.425Z,21.60
2023-08-24T03:37:25.311Z,21.60
2023-08-24T03:40:13.503Z,21.60
2023-08-24T03:43:00.527Z,21.60
2023-08-24T03:45:47.462Z,21.60
2023-08-24T03:48:34.668Z,21.70
2023-08-24T03:51:21.564Z,21.70
2023-08-24T03:54:08.409Z,21.60
2023-08-24T03:56:55.392Z,21.60
2023-08-24T03:59:42.206Z,21.60
2023-08-24T04:02:29.205Z,21.60
2023-08-24T04:05:16.121Z,21.60
2023-08-24T04:08:03.528Z,21.50
2023-08-24T04:10:50.362Z,21.50
2023-08-24T04:13:37.266Z,21.60
2023-08-24T04:16:24.112Z,21.50
2023-08-24T04:19:11.052Z,21.50
2023-08-24T04:21:57.874Z,21.50
2023-08-24T04:24:44.738Z,21.40
2023-08-24T04:27:31.718Z,21.40
2023-08-24T04:30:18.701Z,21.30
2023-08-24T04:33:05.693Z,21.30
2023-08-24T04:35:52.680Z,21.30
2023-08-24T04:38:39.595Z,21.30
2023-08-24T04:41:26.529Z,21.30
2023-08-24T04:44:13.913Z,21.30
2023-08-24T04:47:01.781Z,21.30
2023-08-24T04:49:48.647Z,21.30
2023-08-24T04:52:36.039Z,21.30
2023-08-24T04:55:23.297Z,21.30
2023-08-24T04:58:10.852Z,21.20
2023-08-24T05:00:57.674Z,21.30
2023-08-24T05:03:44.567Z,21.30
2023-08-24T05:06:31.484Z,21.30
2023-08-24T05:09:18.414Z,21.40
2023-08-24T05:12:05.620Z,21.40
2023-08-24T05:14:52.498Z,21.40
2023-08-24T05:17:39.407Z,21.40
2023-08-24T05:20:27.368Z,21.50
2023-08-24T05:23:14.444Z,21.40
2023-08-24T05:26:03.344Z,21.50
2023-08-24T05:28:50.259Z,21.50
2023-08-24T05:31:37.101Z,21.50
2023-08-24T05:34:23.926Z,21.60
2023-08-24T05:37:10.783Z,21.60
2023-08-24T05:39:57.630Z,21.60
2023-08-24T05:42:44.542Z,21.60
2023-08-24T05:45:31.374Z,21.70
2023-08-24T05:48:18.400Z,21.80
2023-08-24T05:51:07.569Z,21.90
2023-08-24T05:53:56.798Z,22.00
2023-08-24T05:56:43.770Z,22.10
2023-08-24T05:59:30.827Z,22.20
2023-08-24T06:02:17.709Z,22.20
2023-08-24T06:05:04.808Z,22.30
2023-08-24T06:07:51.900Z,22.30
2023-08-24T06:10:39.031Z,22.40
2023-08-24T06:13:26.314Z,22.40
2023-08-24T06:16:13.196Z,22.40
2023-08-24T06:19:00.361Z,22.40
2023-08-24T06:21:47.241Z,22.40
2023-08-24T06:24:34.193Z,22.50
2023-08-24T06:27:21.013Z,22.50
2023-08-24T06:30:08.526Z,22.40
2023-08-24T06:32:55.472Z,22.40
2023-08-24T06:35:42.396Z,22.40
2023-08-24T06:38:30.195Z,22.40
2023-08-24T06:41:17.153Z,22.50
2023-08-24T06:44:04.196Z,22.50
2023-08-24T06:46:51.014Z,22.50
2023-08-24T06:49:37.852Z,22.60
2023-08-24T06:52:24.936Z,22.60
2023-08-24T06:55:13.151Z,22.70
2023-08-24T06:58:00.009Z,22.70
2023-08-24T07:00:46.876Z,22.70
2023-08-24T07:03:34.255Z,22.80
2023-08-24T07:06:21.174Z,22.90
2023-08-24T07:09:08.900Z,22.80
2023-08-24T07:11:55.796Z,22.90
2023-08-24T07:14:42.596Z,22.90
2023-08-24T07:17:29.714Z,23.00
2023-08-24T07:20:17.433Z,23.10
2023-08-24T07:23:04.617Z,23.10
2023-08-24T07:25:51.473Z,23.20
2023-08-24T07:28:39.497Z,23.30
2023-08-24T07:31:26.482Z,23.30
2023-08-24T07:34:13.388Z,23.50
2023-08-24T07:37:00.212Z,23.60
2023-08-24T07:39:47.103Z,23.60
2023-08-24T07:42:44.632Z,23.70
2023-08-24T07:45:31.852Z,23.80
2023-08-24T07:48:18.863Z,23.90
2023-08-24T07:51:05.947Z,24.00
2023-08-24T07:53:53.472Z,24.20
2023-08-24T07:56:40.407Z,24.20
2023-08-24T07:59:27.249Z,24.30
2023-08-24T08:02:16.500Z,24.40
2023-08-24T08:05:03.898Z,24.40
2023-08-24T08:07:51.040Z,24.50
2023-08-24T08:10:38.301Z,24.60
2023-08-24T08:13:25.145Z,24.60
2023-08-24T08:16:12.098Z,24.70
2023-08-24T08:18:59.046Z,24.70
2023-08-24T08:21:45.882Z,24.80
2023-08-24T08:24:32.837Z,24.80
2023-08-24T08:27:19.648Z,24.90
2023-08-24T08:30:07.279Z,25.00
2023-08-24T08:32:55.695Z,25.10
2023-08-24T08:35:42.796Z,25.20
2023-08-24T08:38:29.728Z,25.40
2023-08-24T08:41:18.131Z,25.50
2023-08-24T08:44:06.815Z,25.70
2023-08-24T08:46:53.797Z,25.80
2023-08-24T08:49:42.490Z,25.90
2023-08-24T08:52:29.720Z,26.00
2023-08-24T08:55:16.705Z,26.00
2023-08-24T08:58:05.244Z,26.10
2023-08-24T09:00:53.249Z,26.10
2023-08-24T09:03:41.862Z,26.20
2023-08-24T09:06:29.379Z,26.20
2023-08-24T09:09:16.833Z,26.30
2023-08-24T09:12:06.346Z,26.30
2023-08-24T09:14:53.533Z,26.40
2023-08-24T09:17:44.054Z,26.50
2023-08-24T09:20:31.296Z,26.50
2023-08-24T09:23:21.527Z,26.60
2023-08-24T09:26:08.444Z,26.80
2023-08-24T09:28:55.398Z,26.90
2023-08-24T09:31:46.363Z,27.00
2023-08-24T09:34:33.495Z,27.20
2023-08-24T09:37:21.186Z,27.40
2023-08-24T09:40:09.310Z,27.50
2023-08-24T09:42:57.013Z,27.60
2023-08-24T09:45:54.088Z,27.70
2023-08-24T09:48:41.017Z,27.90
2023-08-24T09:51:28.525Z,27.90
2023-08-24T09:54:18.063Z,27.90
2023-08-24T09:57:08.845Z,28.00
2023-08-24T09:59:56.986Z,28.10
2023-08-24T10:02:51.985Z,28.20
2023-08-24T10:05:53.590Z,28.30
2023-08-24T10:08:56.066Z,28.40
2023-08-24T10:11:50.896Z,28.50
2023-08-24T10:14:48.670Z,28.60
2023-08-24T10:17:37.623Z,28.70
2023-08-24T10:20:25.921Z,28.90
2023-08-24T10:23:13.924Z,29.00
2023-08-24T10:26:03.175Z,29.10
2023-08-24T10:28:52.267Z,29.20
2023-08-24T10:31:41.769Z,29.40
2023-08-24T10:34:28.807Z,29.50
2023-08-24T10:37:15.850Z,29.70
2023-08-24T10:40:04.655Z,29.90
2023-08-24T10:42:51.708Z,30.00
2023-08-24T10:46:01.046Z,30.20
2023-08-24T10:48:47.875Z,30.30
2023-08-24T10:51:44.541Z,30.40
2023-08-24T10:54:33.252Z,30.70
2023-08-24T10:57:30.722Z,30.80
2023-08-24T11:00:24.119Z,31.10
2023-08-24T11:03:12.199Z,31.30
2023-08-24T11:05:59.155Z,31.40
2023-08-24T11:08:47.113Z,31.50
2023-08-24T11:11:34.161Z,31.60
2023-08-24T11:14:23.464Z,31.80
2023-08-24T11:17:21.220Z,32.00
2023-08-24T11:20:09.096Z,32.20
2023-08-24T11:22:57.648Z,32.40
2023-08-24T11:25:45.118Z,32.80
2023-08-24T11:28:32.742Z,33.00
2023-08-24T11:31:19.793Z,33.30
2023-08-24T11:34:08.864Z,33.80
2023-08-24T11:36:55.867Z,34.80
2023-08-24T11:39:47.047Z,36.30
2023-08-24T11:42:37.553Z,38.70
2023-08-24T11:45:25.201Z,40.90
2023-08-24T11:48:12.100Z,42.90
2023-08-24T11:50:59.956Z,44.40
2023-08-24T11:53:48.230Z,45.70
2023-08-24T11:56:41.224Z,46.90
2023-08-24T11:59:29.281Z,48.00
2023-08-24T12:02:18.806Z,48.60
2023-08-24T12:05:08.161Z,48.90
2023-08-24T12:07:55.655Z,49.50
2023-08-24T12:10:46.006Z,49.90
2023-08-24T12:13:35.378Z,50.10
2023-08-24T12:16:24.626Z,49.40
2023-08-24T12:19:12.174Z,48.50
2023-08-24T12:21:59.241Z,47.70
2023-08-24T12:24:49.320Z,47.70
2023-08-24T12:27:36.238Z,47.90
2023-08-24T12:30:23.124Z,47.80
2023-08-24T12:33:10.053Z,47.90
2023-08-24T12:35:57.115Z,48.20
2023-08-24T12:38:46.040Z,48.40
2023-08-24T12:41:33.254Z,48.20
2023-08-24T12:44:20.157Z,48.00
2023-08-24T12:47:07.041Z,47.60
2023-08-24T12:49:55.628Z,47.20
2023-08-24T12:52:42.460Z,46.50
2023-08-24T12:55:29.504Z,45.20
2023-08-24T12:58:16.283Z,44.00
2023-08-24T13:01:03.996Z,43.20
2023-08-24T13:03:51.026Z,42.60
2023-08-24T13:06:37.882Z,41.80
2023-08-24T13:09:24.747Z,41.20
2023-08-24T13:12:11.582Z,40.50
2023-08-24T13:14:58.469Z,39.80
2023-08-24T13:17:45.511Z,39.30
2023-08-24T13:20:32.431Z,38.90
2023-08-24T13:23:19.402Z,38.50
2023-08-24T13:26:06.287Z,37.80
2023-08-24T13:28:53.545Z,37.20
2023-08-24T13:31:40.400Z,36.70
2023-08-24T13:34:27.237Z,36.20
2023-08-24T13:37:14.345Z,35.90
2023-08-24T13:40:01.248Z,35.80
2023-08-24T13:42:48.110Z,35.60
2023-08-24T13:45:36.067Z,35.40
2023-08-24T13:48:25.276Z,35.30
2023-08-24T13:51:13.252Z,35.40
2023-08-24T13:54:00.210Z,35.40
2023-08-24T13:56:48.777Z,35.40
2023-08-24T13:59:35.613Z,35.30
2023-08-24T14:02:22.347Z,35.30
2023-08-24T14:05:10.616Z,35.30
2023-08-24T14:07:57.674Z,35.20
2023-08-24T14:10:44.543Z,35.20
2023-08-24T14:13:32.555Z,35.10
2023-08-24T14:16:19.660Z,35.00
2023-08-24T14:19:06.682Z,34.90
2023-08-24T14:21:53.565Z,34.90
2023-08-24T14:24:40.301Z,34.90
2023-08-24T14:27:27.143Z,34.90
2023-08-24T14:30:14.688Z,34.80
2023-08-24T14:33:01.548Z,34.70
2023-08-24T14:35:54.740Z,34.60
2023-08-24T14:38:42.350Z,34.50
2023-08-24T14:41:30.978Z,34.60
2023-08-24T14:44:17.952Z,34.70
2023-08-24T14:47:04.936Z,34.70
2023-08-24T14:49:51.884Z,34.80
2023-08-24T14:52:39.417Z,34.80
2023-08-24T14:55:26.256Z,34.80
2023-08-24T14:58:13.012Z,34.90
2023-08-24T15:01:00.165Z,34.90
2023-08-24T15:03:47.196Z,34.80
2023-08-24T15:06:34.094Z,34.60
2023-08-24T15:09:20.829Z,34.50
2023-08-24T15:12:07.902Z,34.40
2023-08-24T15:14:59.873Z,34.20
2023-08-24T15:17:47.199Z,34.10
2023-08-24T15:20:34.183Z,33.90
2023-08-24T15:23:22.452Z,33.80
2023-08-24T15:26:10.010Z,33.60
2023-08-24T15:29:13.251Z,33.50
2023-08-24T15:32:01.303Z,33.40
2023-08-24T15:34:48.515Z,33.30
2023-08-24T15:37:36.528Z,33.20
2023-08-24T15:40:23.350Z,33.10
2023-08-24T15:43:10.335Z,33.00
2023-08-24T15:45:57.782Z,32.90
2023-08-24T15:48:44.689Z,32.80
2023-08-24T15:51:32.612Z,32.70
2023-08-24T15:54:19.671Z,32.60
2023-08-24T15:57:06.510Z,32.60
2023-08-24T15:59:53.331Z,32.50
2023-08-24T16:02:40.392Z,32.40
2023-08-24T16:05:27.327Z,32.40
2023-08-24T16:08:14.281Z,32.40
2023-08-24T16:11:01.198Z,32.30
2023-08-24T16:13:47.922Z,32.20
2023-08-24T16:16:35.083Z,32.10
2023-08-24T16:19:23.379Z,32.10
2023-08-24T16:22:10.216Z,32.00
2023-08-24T16:24:57.019Z,31.90
2023-08-24T16:27:44.760Z,31.80
2023-08-24T16:30:31.615Z,31.80
2023-08-24T16:33:19.302Z,31.70
2023-08-24T16:36:06.233Z,31.60
2023-08-24T16:38:53.110Z,31.60
2023-08-24T16:41:40.210Z,31.50
2023-08-24T16:44:26.992Z,31.40
2023-08-24T16:47:13.939Z,31.30
2023-08-24T16:50:01.107Z,31.30
2023-08-24T16:52:48.396Z,31.30
2023-08-24T16:55:35.390Z,31.30
2023-08-24T16:58:22.164Z,31.20
2023-08-24T17:01:10.486Z,31.20
2023-08-24T17:03:57.481Z,31.10
2023-08-24T17:06:44.265Z,31.10
2023-08-24T17:09:31.162Z,31.00
2023-08-24T17:12:18.003Z,30.90
2023-08-24T17:15:05.930Z,30.80
2023-08-24T17:17:53.274Z,30.70
2023-08-24T17:20:40.582Z,30.70
2023-08-24T17:23:28.232Z,30.70
2023-08-24T17:26:15.048Z,30.60
2023-08-24T17:29:01.924Z,30.60
2023-08-24T17:31:48.733Z,30.50
2023-08-24T17:34:35.600Z,30.50
2023-08-24T17:37:22.443Z,30.40
2023-08-24T17:40:11.539Z,30.40
2023-08-24T17:42:58.444Z,30.30
2023-08-24T17:45:45.252Z,30.20
2023-08-24T17:48:34.866Z,30.10
2023-08-24T17:51:21.842Z,30.00
2023-08-24T17:54:08.703Z,29.90
2023-08-24T17:56:55.596Z,29.90
2023-08-24T17:59:42.474Z,29.80
2023-08-24T18:02:29.393Z,29.70
2023-08-24T18:05:16.314Z,29.60
2023-08-24T18:08:04.376Z,29.40
2023-08-24T18:10:51.311Z,29.20
2023-08-24T18:13:38.162Z,29.10
2023-08-24T18:16:25.177Z,29.00
2023-08-24T18:19:12.157Z,28.90
2023-08-24T18:21:59.276Z,28.80
2023-08-24T18:24:46.130Z,28.60
2023-08-24T18:27:32.958Z,28.30
2023-08-24T18:30:20.173Z,27.50
2023-08-24T18:33:07.063Z,26.30
2023-08-24T18:35:54.835Z,25.40
2023-08-24T18:38:41.641Z,24.80
2023-08-24T18:41:28.504Z,24.40
2023-08-24T18:44:15.360Z,24.10
2023-08-24T18:47:02.940Z,23.80
2023-08-24T18:49:49.945Z,23.60
2023-08-24T18:52:37.264Z,23.40
2023-08-24T18:55:24.519Z,23.20
2023-08-24T18:58:11.416Z,23.00
2023-08-24T19:01:03.530Z,22.90
2023-08-24T19:03:50.492Z,22.80
2023-08-24T19:06:46.104Z,22.80
2023-08-24T19:09:34.071Z,22.80
2023-08-24T19:12:20.991Z,22.90
2023-08-24T19:15:08.321Z,23.00
2023-08-24T19:17:56.284Z,23.10
2023-08-24T19:20:43.473Z,23.20
2023-08-24T19:23:31.496Z,23.30
2023-08-24T19:26:18.473Z,23.30
2023-08-24T19:29:08.166Z,23.40
2023-08-24T19:31:55.336Z,23.40
2023-08-24T19:34:42.244Z,23.40
2023-08-24T19:37:29.066Z,23.30
2023-08-24T19:40:16.007Z,23.20
2023-08-24T19:43:02.841Z,23.10
2023-08-24T19:45:50.652Z,23.10
2023-08-24T19:48:37.777Z,23.00
2023-08-24T19:51:24.650Z,23.10
2023-08-24T19:54:11.636Z,23.10
2023-08-24T19:56:58.453Z,23.00
2023-08-24T19:59:45.308Z,23.10
2023-08-24T20:02:32.552Z,23.10
2023-08-24T20:05:19.778Z,23.10
2023-08-24T20:08:06.732Z,23.10
2023-08-24T20:10:54.055Z,23.10
2023-08-24T20:13:41.122Z,23.20
2023-08-24T20:16:28.126Z,23.20
2023-08-24T20:19:15.135Z,23.10
2023-08-24T20:22:02.130Z,23.00
2023-08-24T20:24:49.047Z,23.00
2023-08-24T20:27:37.172Z,22.90
2023-08-24T20:30:24.532Z,22.80
2023-08-24T20:33:11.440Z,22.70
2023-08-24T20:36:00.051Z,22.60
2023-08-24T20:38:46.916Z,22.50
2023-08-24T20:41:33.780Z,22.50
2023-08-24T20:44:21.350Z,22.60
2023-08-24T20:47:08.205Z,22.60
2023-08-24T20:49:55.151Z,22.60
2023-08-24T20:52:42.025Z,22.50
2023-08-24T20:55:28.922Z,22.40
2023-08-24T20:58:16.821Z,22.40
2023-08-24T21:01:09.930Z,22.40
2023-08-24T21:03:56.793Z,22.40
2023-08-24T21:06:45.774Z,22.40
2023-08-24T21:09:32.639Z,22.50
2023-08-24T21:12:19.506Z,22.50
2023-08-24T21:15:06.971Z,22.50
2023-08-24T21:17:53.907Z,22.50
2023-08-24T21:20:40.918Z,22.50
2023-08-24T21:23:28.038Z,22.60
2023-08-24T21:26:14.829Z,22.60
2023-08-24T21:29:01.702Z,22.60
2023-08-24T21:31:48.571Z,22.60
2023-08-24T21:34:35.428Z,22.60
2023-08-24T21:37:22.317Z,22.50
2023-08-24T21:40:09.754Z,22.40
2023-08-24T21:42:56.611Z,22.30
2023-08-24T21:45:43.646Z,22.10
2023-08-24T21:48:30.631Z,22.00
2023-08-24T21:51:17.802Z,22.00
2023-08-24T21:54:04.817Z,22.00
2023-08-24T21:56:51.724Z,22.00
2023-08-24T21:59:38.634Z,22.10
2023-08-24T22:02:25.516Z,22.10
2023-08-24T22:05:12.485Z,22.20
2023-08-24T22:07:59.344Z,22.20
2023-08-24T22:10:46.201Z,22.20
2023-08-24T22:13:33.061Z,22.20
2023-08-24T22:16:19.925Z,22.20
2023-08-24T22:19:13.869Z,22.20
2023-08-24T22:22:09.160Z,22.20
2023-08-24T22:24:56.156Z,22.10
2023-08-24T22:27:42.981Z,22.00
2023-08-24T22:30:30.306Z,21.90
2023-08-24T22:33:17.166Z,21.80
2023-08-24T22:36:04.611Z,21.90
2023-08-24T22:38:52.104Z,21.90
2023-08-24T22:41:38.951Z,22.00
2023-08-24T22:44:25.865Z,22.00
2023-08-24T22:47:14.110Z,22.10
2023-08-24T22:50:08.739Z,22.10
2023-08-24T22:52:55.597Z,22.10
2023-08-24T22:55:42.526Z,22.10
2023-08-24T22:58:29.450Z,22.10
2023-08-24T23:01:23.191Z,22.20
2023-08-24T23:04:10.266Z,22.20
2023-08-24T23:06:57.038Z,22.10
2023-08-24T23:09:44.379Z,22.20
2023-08-24T23:12:31.280Z,22.20
2023-08-24T23:15:18.268Z,22.20
2023-08-24T23:18:05.437Z,22.20
2023-08-24T23:20:52.338Z,22.20
2023-08-24T23:23:39.200Z,22.10
2023-08-24T23:26:26.119Z,22.00
2023-08-24T23:29:13.050Z,22.00
2023-08-24T23:31:59.992Z,21.90
2023-08-24T23:34:46.908Z,21.90
2023-08-24T23:37:33.736Z,21.80
2023-08-24T23:40:20.639Z,21.70
2023-08-24T23:43:07.610Z,21.60
2023-08-24T23:45:54.476Z,21.60
2023-08-24T23:48:41.543Z,21.60
2023-08-24T23:51:28.450Z,21.60
2023-08-24T23:54:15.324Z,21.60
2023-08-24T23:57:02.186Z,21.70
2023-08-24T23:59:49.209Z,21.80
